Time;durP1;ratioP1;P1;durP2;ratioP2;P2;SDS_P1;SDS_P2;PMS_P1;PMS_P2;Temp;Humidity;BMP_temperature;BMP_pressure;BME280_temperature;BME280_humidity;BME280_pressure;Samples;Min_cycle;Max_cycle;Signal;HPM_P1;HPM_P2
2023/08/28 00:01:59;;;;;;;;;;;;;;;;;;;;;
2023/08/28 00:04:41;;;;;;;4.93;1.30;;;14.70;99.90;;;;;;6126422;23;20020;-88
2023/08/28 00:07:18;;;;;;;4.72;1.05;;;14.70;99.90;;;;;;6163287;23;20012;-88
2023/08/28 00:10:25;;;;;;;;;;;14.70;99.90;;;;;;6152753;23;20358;-88
2023/08/28 00:12:57;;;;;;;5.63;1.15;;;14.60;99.90;;;;;;6138100;23;19915;-89
2023/08/28 00:15:36;;;;;;;3.60;1.33;;;14.60;99.90;;;;;;6138814;23;20001;-90
2023/08/28 00:18:32;;;;;;;;;;;;;;;;;;;;;
2023/08/28 00:21:07;;;;;;;3.67;1.20;;;14.60;99.90;;;;;;6138084;23;20044;-88
2023/08/28 00:24:00;;;;;;;;;;;;;;;;;;;;;
2023/08/28 00:26:52;;;;;;;5.25;1.38;;;14.60;99.90;;;;;;6109549;23;20016;-88
2023/08/28 00:29:43;;;;;;;5.82;1.67;;;14.60;99.90;;;;;;6162578;23;20009;-89
2023/08/28 00:32:24;;;;;;;2.88;1.17;;;14.60;99.90;;;;;;6114657;23;20117;-88
2023/08/28 00:34:58;;;;;;;4.30;1.67;;;14.60;99.90;;;;;;6137849;23;20143;-88
2023/08/28 00:37:43;;;;;;;3.92;1.17;;;14.60;99.90;;;;;;6139143;23;20025;-88
2023/08/28 00:40:13;;;;;;;2.95;1.30;;;14.60;99.90;;;;;;6138365;23;20005;-88
2023/08/28 00:42:53;;;;;;;;;;;;;;;;;;;;;
2023/08/28 00:45:35;;;;;;;4.25;1.02;;;14.60;99.90;;;;;;6138404;23;20035;-88
2023/08/28 00:48:18;;;;;;;6.18;1.15;;;14.60;99.90;;;;;;6117333;23;20063;-89
2023/08/28 00:50:48;;;;;;;3.20;1.00;;;14.70;99.90;;;;;;6138560;23;20009;-89
2023/08/28 00:53:23;;;;;;;3.60;1.10;;;14.70;99.90;;;;;;6138821;23;20013;-91
2023/08/28 00:56:16;;;;;;;4.10;1.20;;;14.60;99.90;;;;;;6146335;23;20013;-89
2023/08/28 00:58:55;;;;;;;;;;;;;;;;;;;;;
2023/08/28 01:01:31;;;;;;;4.68;1.15;;;14.60;99.90;;;;;;6162868;23;20275;-89
2023/08/28 01:04:17;;;;;;;4.32;1.63;;;14.60;99.90;;;;;;6097355;23;20017;-88
2023/08/28 01:07:26;;;;;;;3.30;1.25;;;14.50;99.90;;;;;;6165131;23;20011;-89
2023/08/28 01:10:27;;;;;;;3.83;1.25;;;14.50;99.90;;;;;;6163477;23;20017;-88
2023/08/28 01:13:26;;;;;;;2.45;1.15;;;14.50;99.90;;;;;;6118052;23;20009;-88
2023/08/28 01:16:16;;;;;;;1.85;1.10;;;14.40;99.90;;;;;;6162526;23;20404;-88
2023/08/28 01:19:00;;;;;;;;;;;;;;;;;;;;;
2023/08/28 01:21:40;;;;;;;4.50;1.40;;;14.40;99.90;;;;;;6138706;23;20015;-88
2023/08/28 01:24:21;;;;;;;3.70;1.10;;;14.30;99.90;;;;;;6117675;23;20017;-88
2023/08/28 01:27:02;;;;;;;2.72;1.15;;;14.30;99.90;;;;;;6141022;23;20314;-88
2023/08/28 01:29:45;;;;;;;4.38;1.30;;;14.30;99.90;;;;;;6164262;23;20051;-89
2023/08/28 01:32:31;;;;;;;4.30;1.33;;;14.30;99.90;;;;;;6161794;23;20009;-89
2023/08/28 01:35:09;;;;;;;5.13;1.80;;;14.30;99.90;;;;;;6162054;23;20099;-88
2023/08/28 01:38:05;;;;;;;5.90;1.52;;;14.30;99.90;;;;;;6114596;23;20011;-88
2023/08/28 01:40:52;;;;;;;3.63;1.45;;;14.30;99.90;;;;;;6102068;23;20076;-88
2023/08/28 01:43:31;;;;;;;5.03;1.42;;;14.20;99.90;;;;;;6140927;23;20005;-88
2023/08/28 01:46:17;;;;;;;5.60;1.50;;;14.20;99.90;;;;;;6140348;23;20016;-88
2023/08/28 01:48:54;;;;;;;5.97;1.48;;;14.20;99.90;;;;;;6139428;23;20029;-88
2023/08/28 01:51:30;;;;;;;6.22;1.35;;;14.20;99.90;;;;;;6140929;23;20075;-88
2023/08/28 01:54:30;;;;;;;3.17;1.27;;;14.10;99.90;;;;;;6105507;23;20013;-89
2023/08/28 01:57:13;;;;;;;;;;;;;;;;;;;;;
2023/08/28 02:00:00;;;;;;;4.38;1.30;;;14.10;99.90;;;;;;6164347;23;20009;-88
2023/08/28 02:02:26;;;;;;;3.75;1.35;;;14.10;99.90;;;;;;6117090;23;20017;-88
2023/08/28 02:08:24;;;;;;;;;;;;;;;;;;;;;
2023/08/28 02:11:26;;;;;;;;;;;;;;;;;;;;;
2023/08/28 02:14:09;;;;;;;4.35;1.30;;;14.00;99.90;;;;;;6140286;23;20262;-88
2023/08/28 02:17:18;;;;;;;2.78;1.30;;;14.00;99.90;;;;;;6126720;23;20020;-89
2023/08/28 02:19:44;;;;;;;2.72;1.15;;;13.90;99.90;;;;;;6092193;23;20441;-88
2023/08/28 02:22:18;;;;;;;3.53;1.27;;;14.00;99.90;;;;;;6116496;23;20084;-88
2023/08/28 02:25:24;;;;;;;;;;;;;;;;;;;;;
2023/08/28 02:28:03;;;;;;;4.63;1.20;;;13.90;99.90;;;;;;6163610;23;20012;-89
2023/08/28 02:31:00;;;;;;;2.28;1.00;;;13.90;99.90;;;;;;6147179;23;20001;-88
2023/08/28 02:33:41;;;;;;;3.78;1.30;;;13.90;99.90;;;;;;6116284;23;20413;-89
2023/08/28 02:36:19;;;;;;;5.00;1.23;;;13.80;99.90;;;;;;6117795;23;20005;-88
2023/08/28 02:38:52;;;;;;;3.92;1.30;;;13.80;99.90;;;;;;6115577;23;20008;-90
2023/08/28 02:41:52;;;;;;;1.58;1.00;;;13.80;99.90;;;;;;6151267;23;20279;-88
2023/08/28 02:44:38;;;;;;;2.70;1.20;;;13.80;99.90;;;;;;6165206;23;20012;-88
2023/08/28 02:47:20;;;;;;;2.40;1.20;;;13.80;99.90;;;;;;6140146;23;20039;-89
2023/08/28 02:49:49;;;;;;;3.78;1.50;;;13.80;99.90;;;;;;6138878;23;20016;-88
2023/08/28 02:52:37;;;;;;;3.03;1.17;;;13.70;99.90;;;;;;6121505;23;20005;-88
2023/08/28 02:55:15;;;;;;;4.55;1.20;;;13.70;99.90;;;;;;6114202;23;20100;-88
2023/08/28 02:57:43;;;;;;;2.83;1.27;;;13.70;99.90;;;;;;6069556;23;20017;-88
2023/08/28 03:01:03;;;;;;;4.07;1.13;;;13.70;99.90;;;;;;6064912;23;20270;-89
2023/08/28 03:03:37;;;;;;;2.60;1.40;;;13.70;99.90;;;;;;6095088;23;20386;-88
2023/08/28 03:06:16;;;;;;;2.63;1.27;;;13.70;99.90;;;;;;6163207;23;20020;-90
2023/08/28 03:08:53;;;;;;;2.42;1.20;;;13.70;99.90;;;;;;6163479;23;20393;-89
2023/08/28 03:11:45;;;;;;;;;;;;;;;;;;;;;
2023/08/28 03:14:31;;;;;;;2.83;1.27;;;13.60;99.90;;;;;;6162913;23;20009;-87
2023/08/28 03:17:05;;;;;;;3.97;1.33;;;13.60;99.90;;;;;;6138701;23;20017;-88
2023/08/28 03:19:37;;;;;;;2.22;1.20;;;13.60;99.90;;;;;;6115802;23;20013;-89
2023/08/28 03:22:23;;;;;;;;;;;;;;;;;;;;;
2023/08/28 03:24:59;;;;;;;3.97;1.30;;;13.60;99.90;;;;;;6146122;23;20342;-88
2023/08/28 03:27:45;;;;;;;;;;;;;;;;;;;;;
2023/08/28 03:30:29;;;;;;;;;;;;;;;;;;;;;
2023/08/28 03:33:43;;;;;;;;;;;;;;;;;;;;;
2023/08/28 03:36:16;;;;;;;;;;;13.60;99.90;;;;;;6166551;23;20008;-88
2023/08/28 03:38:57;;;;;;;4.25;1.80;;;13.60;99.90;;;;;;6168682;23;19931;-89
2023/08/28 03:42:00;;;;;;;6.25;2.10;;;13.60;99.90;;;;;;6146178;23;20016;-88
2023/08/28 03:44:47;;;;;;;4.23;2.23;;;13.60;99.90;;;;;;6124496;23;20009;-88
2023/08/28 03:47:44;;;;;;;6.68;2.25;;;13.60;99.90;;;;;;6150646;23;20504;-87
2023/08/28 03:50:41;;;;;;;7.10;2.13;;;13.60;99.90;;;;;;6127919;23;20024;-88
2023/08/28 03:53:22;;;;;;;4.28;1.92;;;13.60;99.90;;;;;;6165976;23;20009;-88
2023/08/28 03:55:56;;;;;;;5.95;2.38;;;13.60;99.90;;;;;;6117034;23;20001;-89
2023/08/28 03:58:42;;;;;;;3.80;1.83;;;13.60;99.90;;;;;;6144134;23;20009;-88
2023/08/28 04:01:33;;;;;;;6.90;2.45;;;13.60;99.90;;;;;;6118342;23;20016;-89
2023/08/28 04:04:00;;;;;;;6.43;2.00;;;13.60;99.90;;;;;;6116637;23;20032;-88
2023/08/28 04:06:32;;;;;;;6.13;2.38;;;13.50;99.90;;;;;;6141846;23;20097;-89
2023/08/28 04:09:03;;;;;;;5.38;2.40;;;13.50;99.90;;;;;;6165620;23;20025;-88
2023/08/28 04:11:36;;;;;;;3.67;2.00;;;13.50;99.90;;;;;;6142337;23;20013;-88
2023/08/28 04:14:07;;;;;;;3.80;2.30;;;13.60;99.90;;;;;;6094856;23;20013;-89
2023/08/28 04:16:41;;;;;;;4.65;2.10;;;13.50;99.90;;;;;;6118826;23;20029;-89
2023/08/28 04:19:26;;;;;;;4.40;2.30;;;13.50;99.90;;;;;;6117185;23;20001;-88
2023/08/28 04:22:12;;;;;;;;;;;;;;;;;;;;;
2023/08/28 04:24:59;;;;;;;4.88;2.28;;;13.50;99.90;;;;;;6166018;23;20005;-88
2023/08/28 04:27:44;;;;;;;4.07;2.15;;;13.50;99.90;;;;;;6145573;23;20005;-88
2023/08/28 04:30:42;;;;;;;;;;;;;;;;;;;;;
2023/08/28 04:33:23;;;;;;;6.45;2.50;;;13.40;99.90;;;;;;6164962;23;20416;-87
2023/08/28 04:36:39;;;;;;;8.40;2.83;;;13.40;99.90;;;;;;6128850;23;20036;-92
2023/08/28 04:39:28;;;;;;;5.85;2.78;;;13.40;99.90;;;;;;6122471;23;20013;-89
2023/08/28 04:42:27;;;;;;;5.75;3.17;;;13.40;99.90;;;;;;6144936;23;20009;-89
2023/08/28 04:45:06;;;;;;;9.52;3.20;;;13.40;99.90;;;;;;6146168;23;20382;-89
2023/08/28 04:47:44;;;;;;;7.70;3.20;;;13.40;99.90;;;;;;6140030;23;20019;-89
2023/08/28 04:53:35;;;;;;;4.85;3.00;;;13.30;99.90;;;;;;6166829;23;20009;-89
2023/08/28 04:56:23;;;;;;;5.20;2.95;;;13.30;99.90;;;;;;6145272;23;20044;-90
2023/08/28 04:59:05;;;;;;;8.88;2.90;;;13.30;99.90;;;;;;6141024;23;20009;-88
2023/08/28 05:01:57;;;;;;;5.10;2.90;;;13.30;99.90;;;;;;6166973;23;20016;-89
2023/08/28 05:05:02;;;;;;;7.97;3.53;;;13.30;99.90;;;;;;6153824;23;20033;-89
2023/08/28 05:08:07;;;;;;;8.77;3.60;;;13.30;99.90;;;;;;6073538;23;20016;-90
2023/08/28 05:11:08;;;;;;;7.63;3.25;;;13.30;99.90;;;;;;6189613;23;20008;-87
2023/08/28 05:14:10;;;;;;;5.82;3.10;;;13.20;99.90;;;;;;6130211;23;20017;-88
2023/08/28 05:16:54;;;;;;;7.53;3.50;;;13.20;99.90;;;;;;6095202;23;20017;-87
2023/08/28 05:19:25;;;;;;;;;;;13.30;99.90;;;;;;6115659;23;20338;-88
2023/08/28 05:22:51;;;;;;;3.85;2.50;;;13.30;99.90;;;;;;6121985;23;19908;-88
2023/08/28 05:25:36;;;;;;;5.97;2.70;;;13.40;99.90;;;;;;6158006;23;20009;-88
2023/08/28 05:28:38;;;;;;;6.57;2.63;;;13.30;99.90;;;;;;6139533;23;20279;-91
2023/08/28 05:31:09;;;;;;;6.22;2.80;;;13.30;99.90;;;;;;6117229;23;20087;-89
2023/08/28 05:33:51;;;;;;;;;;;;;;;;;;;;;
2023/08/28 05:36:27;;;;;;;4.55;2.53;;;13.40;99.90;;;;;;6162832;23;20002;-87
2023/08/28 05:39:28;;;;;;;5.88;2.60;;;13.40;99.90;;;;;;6160454;23;20081;-87
2023/08/28 05:42:10;;;;;;;;;;;13.50;99.90;;;;;;6139673;23;20079;-87
2023/08/28 05:44:49;;;;;;;5.93;3.00;;;13.50;99.90;;;;;;6138448;23;19970;-87
2023/08/28 05:47:36;;;;;;;6.47;3.33;;;13.50;99.90;;;;;;6119825;23;20040;-87
2023/08/28 05:50:18;;;;;;;5.13;2.78;;;13.60;99.90;;;;;;6139502;23;20039;-87
2023/08/28 05:52:47;;;;;;;7.10;2.47;;;13.60;99.90;;;;;;6163270;23;20055;-87
2023/08/28 05:55:28;;;;;;;9.60;2.90;;;13.60;99.90;;;;;;6165206;23;20076;-89
2023/08/28 05:58:00;;;;;;;7.20;3.13;;;13.70;99.90;;;;;;6137936;23;20031;-87
2023/08/28 06:00:29;;;;;;;7.30;2.92;;;13.80;99.90;;;;;;6137962;23;20036;-87
2023/08/28 06:03:02;;;;;;;8.45;3.25;;;13.70;99.90;;;;;;6113896;23;20083;-88
2023/08/28 06:06:21;;;;;;;7.38;3.30;;;13.70;99.90;;;;;;6133138;23;20013;-89
2023/08/28 06:09:18;;;;;;;6.35;3.00;;;13.80;99.90;;;;;;6120097;23;20016;-87
2023/08/28 06:11:54;;;;;;;6.32;3.03;;;13.80;99.90;;;;;;6162299;23;20009;-87
2023/08/28 06:14:49;;;;;;;7.55;3.20;;;13.90;99.90;;;;;;6115530;23;20067;-87
2023/08/28 06:17:29;;;;;;;9.38;3.30;;;13.90;99.90;;;;;;6137052;23;20047;-88
2023/08/28 06:20:34;;;;;;;8.85;3.10;;;14.00;99.90;;;;;;6147835;23;20013;-89
2023/08/28 06:23:22;;;;;;;;;;;;;;;;;;;;;
2023/08/28 06:26:26;;;;;;;;;;;;;;;;;;;;;
2023/08/28 06:29:13;;;;;;;9.57;3.05;;;14.10;99.90;;;;;;6163235;23;20005;-89
2023/08/28 06:31:48;;;;;;;7.82;2.83;;;14.20;99.90;;;;;;6139481;23;20391;-88
2023/08/28 06:34:57;;;;;;;8.85;2.97;;;14.30;99.90;;;;;;6146190;23;20008;-88
2023/08/28 06:37:30;;;;;;;8.45;3.35;;;14.30;99.90;;;;;;6094927;23;20016;-88
2023/08/28 06:40:19;;;;;;;9.40;2.97;;;14.40;99.90;;;;;;6120292;23;20084;-87
2023/08/28 06:43:25;;;;;;;7.68;2.70;;;14.40;99.90;;;;;;6189969;23;20019;-87
2023/08/28 06:47:15;;;;;;;7.07;2.63;;;14.50;99.90;;;;;;6107023;23;20017;-87
2023/08/28 06:50:18;;;;;;;8.23;2.50;;;14.60;99.90;;;;;;6162255;23;20025;-87
2023/08/28 06:53:13;;;;;;;6.82;2.10;;;14.70;99.90;;;;;;6139706;23;20020;-88
2023/08/28 06:56:11;;;;;;;6.75;2.40;;;14.80;99.90;;;;;;6143727;23;20100;-87
2023/08/28 06:59:05;;;;;;;8.52;2.20;;;14.90;99.90;;;;;;6126668;23;20079;-87
2023/08/28 07:01:46;;;;;;;10.02;2.40;;;15.10;99.90;;;;;;6143211;23;20036;-87
2023/08/28 07:04:40;;;;;;;5.57;1.90;;;15.20;99.90;;;;;;6123752;23;20035;-88
2023/08/28 07:07:11;;;;;;;7.30;1.52;;;15.30;99.90;;;;;;6139233;23;20446;-87
2023/08/28 07:10:08;;;;;;;3.67;1.60;;;15.40;99.90;;;;;;6117321;23;20266;-88
2023/08/28 07:13:27;;;;;;;7.57;1.83;;;15.60;99.90;;;;;;6122228;23;20084;-88
2023/08/28 07:16:20;;;;;;;4.80;1.75;;;15.70;99.90;;;;;;6163377;23;20016;-87
2023/08/28 07:18:55;;;;;;;5.93;1.80;;;15.80;99.90;;;;;;6139359;23;20009;-88
2023/08/28 07:21:27;;;;;;;4.80;1.60;;;15.90;99.90;;;;;;6091287;23;20009;-87
2023/08/28 07:24:08;;;;;;;6.15;1.70;;;16.00;99.90;;;;;;6114899;23;20091;-87
2023/08/28 07:27:19;;;;;;;3.95;1.17;;;16.20;99.90;;;;;;6146101;23;20013;-88
2023/08/28 07:30:06;;;;;;;5.78;1.38;;;16.30;99.90;;;;;;6168596;23;20008;-87
2023/08/28 07:32:47;;;;;;;5.22;1.20;;;16.40;99.90;;;;;;6115064;23;20013;-87
2023/08/28 07:35:47;;;;;;;;;;;;;;;;;;;;;
2023/08/28 07:41:30;;;;;;;5.93;1.40;;;16.80;99.90;;;;;;6163449;23;20001;-87
2023/08/28 07:44:21;;;;;;;5.57;1.08;;;17.00;99.90;;;;;;6132931;23;20055;-88
2023/08/28 07:47:42;;;;;;;5.45;1.33;;;17.10;99.90;;;;;;6144012;23;20012;-88
2023/08/28 07:54:08;;;;;;;3.55;1.00;;;17.30;99.90;;;;;;6133224;23;20099;-87
2023/08/28 07:56:56;;;;;;;5.68;1.23;;;17.40;99.90;;;;;;6139058;23;20087;-87
2023/08/28 07:59:49;;;;;;;;;;;;;;;;;;;;;
2023/08/28 08:06:50;;;;;;;;;;;;;;;;;;;;;
2023/08/28 08:09:38;;;;;;;2.63;1.10;;;17.20;99.90;;;;;;6162778;23;20362;-88
2023/08/28 08:12:15;;;;;;;1.98;0.85;;;17.10;99.90;;;;;;6091714;23;20013;-87
2023/08/28 08:15:05;;;;;;;;;;;17.10;99.90;;;;;;6103944;23;20075;-88
2023/08/28 08:17:44;;;;;;;6.60;1.00;;;17.30;99.90;;;;;;6164241;23;19915;-88
2023/08/28 08:20:24;;;;;;;3.85;1.00;;;17.60;99.90;;;;;;6164968;23;20001;-87
2023/08/28 08:23:28;;;;;;;4.43;1.08;;;17.80;99.90;;;;;;6132409;23;20009;-87
2023/08/28 08:26:57;;;;;;;2.92;0.82;;;18.00;99.90;;;;;;6107310;23;20036;-87
2023/08/28 08:30:20;;;;;;;4.03;0.90;;;18.10;99.90;;;;;;6147820;23;20016;-89
2023/08/28 08:33:24;;;;;;;4.90;1.15;;;18.40;99.90;;;;;;6116941;23;20048;-87
2023/08/28 08:36:13;;;;;;;2.03;0.90;;;18.40;99.90;;;;;;6163896;23;20005;-88
2023/08/28 08:39:10;;;;;;;4.13;1.00;;;18.50;99.90;;;;;;6148381;23;20016;-88
2023/08/28 08:42:19;;;;;;;;;;;;;;;;;;;;;
2023/08/28 08:45:20;;;;;;;3.58;1.00;;;18.50;99.90;;;;;;6148320;23;20024;-88
2023/08/28 08:48:11;;;;;;;3.75;1.00;;;18.70;99.90;;;;;;6139646;23;20373;-89
2023/08/28 08:51:22;;;;;;;3.33;1.10;;;18.80;99.90;;;;;;6161951;23;20537;-88
2023/08/28 08:54:37;;;;;;;;;;;;;;;;;;;;;
2023/08/28 08:57:52;;;;;;;3.60;1.17;;;18.80;99.90;;;;;;6161724;23;20032;-88
2023/08/28 09:00:58;;;;;;;;;;;;;;;;;;;;;
2023/08/28 09:03:39;;;;;;;4.53;1.10;;;18.80;99.90;;;;;;6165479;23;20104;-89
2023/08/28 09:06:55;;;;;;;2.70;1.10;;;18.80;99.90;;;;;;6130534;23;20020;-88
2023/08/28 09:10:03;;;;;;;;;;;;;;;;;;;;;
2023/08/28 09:12:56;;;;;;;;;;;;;;;;;;;;;
2023/08/28 09:15:54;;;;;;;1.77;0.85;;;19.10;99.90;;;;;;6161971;23;20016;-88
2023/08/28 09:18:45;;;;;;;2.90;1.25;;;19.20;99.90;;;;;;6138936;23;20254;-89
2023/08/28 09:21:33;;;;;;;;;;;;;;;;;;;;;
2023/08/28 09:24:32;;;;;;;4.82;1.25;;;18.90;99.90;;;;;;6154986;23;20043;-88
2023/08/28 09:27:48;;;;;;;;;;;;;;;;;;;;;
2023/08/28 09:30:45;;;;;;;2.78;0.90;;;18.80;99.90;;;;;;6152921;23;20017;-89
2023/08/28 09:33:15;;;;;;;4.82;1.00;;;18.90;99.90;;;;;;6136838;23;20017;-89
2023/08/28 09:36:15;;;;;;;4.57;1.42;;;19.00;99.90;;;;;;6141730;23;20017;-91
2023/08/28 09:40:10;;;;;;;3.25;1.20;;;19.10;99.90;;;;;;6162278;23;20005;-89
2023/08/28 09:42:35;;;;;;;2.28;1.10;;;19.30;99.90;;;;;;6157737;23;20071;-89
2023/08/28 09:45:07;;;;;;;3.63;1.25;;;19.30;99.90;;;;;;6161680;23;20474;-89
2023/08/28 09:48:06;;;;;;;1.48;0.65;;;19.40;99.90;;;;;;6137879;23;20092;-89
2023/08/28 09:50:52;;;;;;;3.38;1.02;;;19.40;99.90;;;;;;6161874;23;20012;-89
2023/08/28 09:53:41;;;;;;;4.07;0.98;;;19.30;99.90;;;;;;6133987;23;20017;-90
2023/08/28 09:56:32;;;;;;;;;;;;;;;;;;;;;
2023/08/28 09:59:19;;;;;;;1.92;0.90;;;19.30;99.90;;;;;;6137474;23;20017;-92
2023/08/28 10:01:57;;;;;;;2.08;0.90;;;19.50;99.90;;;;;;6166787;23;20005;-92
2023/08/28 10:05:12;;;;;;;5.63;1.50;;;19.60;99.90;;;;;;6142866;23;20394;-91
2023/08/28 10:07:52;;;;;;;3.50;1.08;;;19.60;99.90;;;;;;6116691;23;20067;-91
2023/08/28 10:11:20;;;;;;;1.58;0.90;;;19.50;99.90;;;;;;6126303;23;20068;-89
2023/08/28 10:14:39;;;;;;;;;;;;;;;;;;;;;
2023/08/28 10:18:06;;;;;;;;;;;;;;;;;;;;;
2023/08/28 10:21:30;;;;;;;4.68;0.95;;;19.60;99.90;;;;;;6163516;23;20083;-90
2023/08/28 10:24:24;;;;;;;3.88;0.82;;;19.70;99.90;;;;;;6131687;23;20067;-90
2023/08/28 10:27:14;;;;;;;2.58;0.93;;;19.80;99.90;;;;;;6141287;23;20021;-90
2023/08/28 10:30:29;;;;;;;;;;;;;;;;;;;;;
2023/08/28 10:36:43;;;;;;;3.25;0.98;;;19.90;99.90;;;;;;6143817;23;20039;-90
2023/08/28 10:40:05;;;;;;;5.28;1.10;;;19.80;99.90;;;;;;6148771;23;20005;-91
2023/08/28 10:45:48;;;;;;;4.88;1.30;;;19.70;99.90;;;;;;6160074;23;20013;-90
2023/08/28 10:49:01;;;;;;;3.33;1.10;;;19.60;99.90;;;;;;6143230;23;20405;-90
2023/08/28 10:51:44;;;;;;;6.47;1.00;;;19.60;99.90;;;;;;6117455;23;20037;-91
2023/08/28 10:55:01;;;;;;;3.53;1.20;;;19.50;99.90;;;;;;6143608;23;20013;-88
2023/08/28 10:57:42;;;;;;;2.53;1.02;;;19.50;99.90;;;;;;6136928;23;20005;-89
2023/08/28 11:00:21;;;;;;;3.78;0.90;;;19.40;99.90;;;;;;6114170;23;20033;-90
2023/08/28 11:06:38;;;;;;;3.35;1.00;;;19.50;99.90;;;;;;6136158;23;20023;-91
2023/08/28 11:09:48;;;;;;;1.95;0.95;;;19.50;99.90;;;;;;6140448;23;20005;-88
2023/08/28 11:12:21;;;;;;;2.72;1.10;;;19.70;99.90;;;;;;6163521;23;20013;-90
2023/08/28 11:15:39;;;;;;;;;;;;;;;;;;;;;
2023/08/28 11:18:41;;;;;;;5.40;1.10;;;19.80;99.90;;;;;;6160673;23;20009;-90
2023/08/28 11:21:38;;;;;;;2.95;0.80;;;19.80;99.90;;;;;;6139113;23;20060;-91
2023/08/28 11:24:26;;;;;;;1.92;0.77;;;19.90;99.90;;;;;;6142741;23;20013;-92
2023/08/28 11:27:56;;;;;;;1.80;0.80;;;20.10;99.90;;;;;;6140498;23;20025;-92
2023/08/28 11:31:24;;;;;;;3.90;0.90;;;20.10;99.90;;;;;;6159395;23;20008;-91
2023/08/28 11:34:17;;;;;;;3.03;0.80;;;20.20;99.90;;;;;;6143546;23;20020;-92
2023/08/28 11:37:54;;;;;;;5.55;1.15;;;20.30;99.90;;;;;;6145429;23;20409;-91
2023/08/28 11:40:28;;;;;;;3.03;0.80;;;20.40;99.90;;;;;;6132453;23;20013;-90
2023/08/28 11:43:51;;;;;;;4.65;0.90;;;20.50;99.90;;;;;;6132233;23;20041;-90
2023/08/28 11:47:11;;;;;;;3.42;0.93;;;20.50;99.90;;;;;;6146642;23;20001;-93
2023/08/28 11:49:58;;;;;;;3.67;0.88;;;20.60;99.90;;;;;;6166636;23;20008;-93
2023/08/28 11:52:58;;;;;;;2.90;1.05;;;20.80;99.90;;;;;;6073031;23;20027;-91
2023/08/28 11:56:02;;;;;;;;;;;;;;;;;;;;;
2023/08/28 11:58:44;;;;;;;2.90;0.93;;;20.80;99.90;;;;;;6141617;23;20270;-89
2023/08/28 12:01:28;;;;;;;;;;;;;;;;;;;;;
2023/08/28 12:04:12;;;;;;;3.72;1.00;;;21.00;99.90;;;;;;6168528;23;19958;-92
2023/08/28 12:06:43;;;;;;;4.93;1.15;;;20.90;99.90;;;;;;6092811;23;20067;-92
2023/08/28 12:09:22;;;;;;;4.53;0.90;;;20.90;99.90;;;;;;6093882;23;20017;-91
2023/08/28 12:12:05;;;;;;;5.03;1.10;;;20.80;99.90;;;;;;6140874;23;20017;-82
2023/08/28 12:14:33;;;;;;;1.92;0.93;;;20.70;99.90;;;;;;6137172;23;20017;-82
2023/08/28 12:17:02;;;;;;;3.00;0.85;;;20.70;99.90;;;;;;6187017;23;20382;-83
2023/08/28 12:19:41;;;;;;;5.00;1.02;;;20.70;99.90;;;;;;6113190;23;20317;-90
2023/08/28 12:22:20;;;;;;;1.65;0.80;;;20.70;99.90;;;;;;6113475;23;20036;-89
2023/08/28 12:25:12;;;;;;;2.65;0.90;;;20.50;99.90;;;;;;6146935;23;20016;-89
2023/08/28 12:28:09;;;;;;;4.03;1.05;;;20.50;99.90;;;;;;6094976;23;20493;-90
2023/08/28 12:30:43;;;;;;;3.08;1.10;;;20.40;99.90;;;;;;6139485;23;20113;-91
2023/08/28 12:33:21;;;;;;;2.47;0.90;;;20.50;99.90;;;;;;6137759;23;20013;-90
2023/08/28 12:36:01;;;;;;;1.95;0.70;;;20.40;99.90;;;;;;6115237;23;20017;-90
2023/08/28 12:38:45;;;;;;;2.15;0.90;;;20.40;99.90;;;;;;6114694;23;20013;-89
2023/08/28 12:41:27;;;;;;;4.22;1.00;;;20.30;99.90;;;;;;6117029;23;20001;-91
2023/08/28 12:44:18;;;;;;;2.45;0.90;;;20.20;99.90;;;;;;6138484;23;20037;-90
2023/08/28 12:47:03;;;;;;;3.10;0.90;;;20.20;99.90;;;;;;6100030;23;20039;-90
2023/08/28 12:49:59;;;;;;;2.20;0.90;;;20.30;99.90;;;;;;6144187;23;20334;-91
2023/08/28 12:52:48;;;;;;;3.30;1.00;;;20.40;99.90;;;;;;6096087;23;20013;-90
2023/08/28 12:55:44;;;;;;;2.22;0.85;;;20.40;99.90;;;;;;6116195;23;20013;-91
2023/08/28 12:58:22;;;;;;;3.22;1.00;;;20.40;99.90;;;;;;6138262;23;20047;-89
2023/08/28 13:01:07;;;;;;;2.03;0.77;;;20.30;99.90;;;;;;6093122;23;20005;-89
2023/08/28 13:03:43;;;;;;;3.53;0.98;;;20.30;99.90;;;;;;6137332;23;20689;-89
2023/08/28 13:06:27;;;;;;;3.38;0.98;;;20.30;99.90;;;;;;6120155;23;20024;-89
2023/08/28 13:09:33;;;;;;;2.17;1.13;;;20.20;99.90;;;;;;6145238;23;20353;-90
2023/08/28 13:12:21;;;;;;;3.53;1.05;;;20.20;99.90;;;;;;6161912;23;20075;-88
2023/08/28 13:15:31;;;;;;;3.53;1.00;;;20.30;99.90;;;;;;6124458;23;20294;-88
2023/08/28 13:18:24;;;;;;;;;;;;;;;;;;;;;
2023/08/28 13:21:10;;;;;;;4.32;1.08;;;20.50;99.90;;;;;;6167677;23;20035;-90
2023/08/28 13:24:09;;;;;;;3.30;1.10;;;20.60;99.90;;;;;;6143568;23;20020;-89
2023/08/28 13:26:52;;;;;;;5.60;1.65;;;20.60;99.90;;;;;;6119769;23;20040;-88
2023/08/28 13:29:23;;;;;;;2.97;1.00;;;20.60;99.90;;;;;;6161912;23;20393;-89
2023/08/28 13:32:03;;;;;;;3.65;1.40;;;20.60;99.90;;;;;;6137862;23;20267;-89
2023/08/28 13:34:42;;;;;;;;;;;;;;;;;;;;;
2023/08/28 13:37:21;;;;;;;2.45;0.80;;;20.60;99.90;;;;;;6186999;23;20051;-89
2023/08/28 13:40:04;;;;;;;2.13;0.90;;;20.60;99.90;;;;;;6096056;23;20027;-89
2023/08/28 13:42:47;;;;;;;2.58;0.90;;;20.60;99.90;;;;;;6117175;23;20379;-89
2023/08/28 13:45:39;;;;;;;2.30;1.00;;;20.60;99.90;;;;;;6162709;23;20005;-90
2023/08/28 13:48:54;;;;;;;4.07;1.10;;;20.50;99.90;;;;;;6141893;23;20024;-89
2023/08/28 13:52:11;;;;;;;;;;;;;;;;;;;;;
2023/08/28 13:55:06;;;;;;;;;;;;;;;;;;;;;
2023/08/28 13:58:26;;;;;;;;;;;;;;;;;;;;;
2023/08/28 14:05:16;;;;;;;4.32;1.00;;;20.50;99.90;;;;;;6149983;23;20120;-89
2023/08/28 14:08:18;;;;;;;2.78;0.82;;;20.40;99.90;;;;;;6133906;23;20087;-91
2023/08/28 14:11:42;;;;;;;3.35;1.00;;;20.40;99.90;;;;;;6130810;23;20255;-90
2023/08/28 14:15:06;;;;;;;3.40;1.17;;;20.50;99.90;;;;;;6142870;23;20042;-90
2023/08/28 14:18:20;;;;;;;3.90;1.23;;;20.40;99.90;;;;;;6137347;23;20093;-90
2023/08/28 14:21:40;;;;;;;4.32;1.20;;;20.30;99.90;;;;;;6153510;23;20067;-89
2023/08/28 14:24:23;;;;;;;4.68;1.38;;;20.30;99.90;;;;;;6118232;23;20071;-89
2023/08/28 14:27:22;;;;;;;6.68;1.25;;;20.20;99.90;;;;;;6123379;23;20009;-90
2023/08/28 14:30:29;;;;;;;3.47;1.73;;;20.30;99.90;;;;;;6118877;23;19997;-90
2023/08/28 14:37:13;;;;;;;3.42;1.10;;;20.30;99.90;;;;;;6125134;23;20394;-90
2023/08/28 14:40:02;;;;;;;3.28;1.30;;;20.30;99.90;;;;;;6137064;23;20060;-90
2023/08/28 14:46:28;;;;;;;2.58;1.00;;;20.40;99.90;;;;;;6142463;23;20024;-90
2023/08/28 14:52:35;;;;;;;2.13;1.00;;;20.40;99.90;;;;;;6162996;23;20277;-90
2023/08/28 14:55:49;;;;;;;2.33;1.10;;;20.30;99.90;;;;;;6144383;23;20033;-89
2023/08/28 15:01:55;;;;;;;;;;;;;;;;;;;;;
2023/08/28 15:05:01;;;;;;;;;;;;;;;;;;;;;
2023/08/28 15:08:10;;;;;;;4.65;1.20;;;20.20;99.90;;;;;;6147011;23;20005;-89
2023/08/28 15:11:09;;;;;;;2.25;0.90;;;20.20;99.90;;;;;;6123630;23;20036;-90
2023/08/28 15:13:43;;;;;;;3.20;1.00;;;20.20;99.90;;;;;;6138796;23;20016;-90
2023/08/28 15:16:43;;;;;;;;;;;;;;;;;;;;;
2023/08/28 15:19:47;;;;;;;;;;;;;;;;;;;;;
2023/08/28 15:23:11;;;;;;;;;;;;;;;;;;;;;
2023/08/28 15:26:40;;;;;;;;;;;;;;;;;;;;;
2023/08/28 15:29:56;;;;;;;;;;;;;;;;;;;;;
2023/08/28 15:32:59;;;;;;;2.15;1.00;;;20.30;99.90;;;;;;6189252;23;20012;-90
2023/08/28 15:39:05;;;;;;;;;;;;;;;;;;;;;
2023/08/28 15:42:18;;;;;;;;;;;;;;;;;;;;;
2023/08/28 15:45:07;;;;;;;1.83;0.93;;;20.00;99.90;;;;;;6147965;23;20019;-90
2023/08/28 15:48:10;;;;;;;;;;;;;;;;;;;;;
2023/08/28 15:51:42;;;;;;;3.83;1.13;;;19.80;99.90;;;;;;6150279;23;20326;-90
2023/08/28 15:54:59;;;;;;;;;;;;;;;;;;;;;
2023/08/28 15:57:43;;;;;;;;;;;;;;;;;;;;;
2023/08/28 16:00:39;;;;;;;3.00;0.90;;;20.00;99.90;;;;;;6139844;23;20009;-91
2023/08/28 16:03:36;;;;;;;2.10;0.80;;;20.10;99.90;;;;;;6143711;23;20071;-91
2023/08/28 16:07:04;;;;;;;3.05;0.73;;;20.20;99.90;;;;;;6166448;23;20005;-90
2023/08/28 16:09:33;;;;;;;2.67;0.77;;;20.20;99.90;;;;;;6163433;23;20009;-90
2023/08/28 16:12:10;;;;;;;2.85;0.52;;;20.20;99.90;;;;;;6138736;23;20013;-91
2023/08/28 16:15:16;;;;;;;2.92;0.90;;;20.20;99.90;;;;;;6141965;23;20092;-90
2023/08/28 16:18:14;;;;;;;2.40;0.70;;;20.20;99.90;;;;;;6125165;23;20005;-90
2023/08/28 16:21:11;;;;;;;1.95;0.90;;;20.20;99.90;;;;;;6168824;23;20005;-91
2023/08/28 16:23:54;;;;;;;4.38;1.02;;;20.30;99.90;;;;;;6141405;23;20039;-90
2023/08/28 16:26:33;;;;;;;4.38;1.10;;;20.50;99.90;;;;;;6139319;23;20371;-89
2023/08/28 16:29:37;;;;;;;2.70;0.88;;;20.60;99.90;;;;;;6188345;23;20023;-90
2023/08/28 16:32:33;;;;;;;;;;;;;;;;;;;;;
2023/08/28 16:35:22;;;;;;;2.08;0.63;;;20.70;99.90;;;;;;6163195;23;20028;-92
2023/08/28 16:38:11;;;;;;;1.33;0.60;;;20.80;99.90;;;;;;6126869;23;20295;-90
2023/08/28 16:43:56;;;;;;;1.33;0.70;;;20.70;99.90;;;;;;6111315;23;20020;-91
2023/08/28 16:46:45;;;;;;;2.55;0.70;;;20.50;99.90;;;;;;6122188;23;20020;-90
2023/08/28 16:50:17;;;;;;;;;;;;;;;;;;;;;
2023/08/28 16:53:28;;;;;;;4.47;0.82;;;20.00;99.90;;;;;;6163281;23;20084;-90
2023/08/28 16:56:04;;;;;;;3.90;0.98;;;19.70;99.90;;;;;;6095483;23;20128;-92
2023/08/28 16:58:44;;;;;;;3.60;0.77;;;19.60;99.90;;;;;;6118050;23;20017;-91
2023/08/28 17:01:34;;;;;;;4.75;1.00;;;19.60;99.90;;;;;;6104667;23;20041;-91